createdAt,value
2023-04-05T00:00:01.603Z,97.86
2023-04-05T00:15:02.021Z,99.16
2023-04-05T00:30:01.400Z,99.72
2023-04-05T00:45:01.907Z,98.83
2023-04-05T01:00:02.923Z,99.28
2023-04-05T01:15:01.977Z,99.24
2023-04-05T01:30:01.504Z,99.16
2023-04-05T01:45:02.044Z,99.81
2023-04-05T02:00:02.119Z,102.27
2023-04-05T02:15:02.096Z,101.91
2023-04-05T02:30:01.907Z,100.86
2023-04-05T02:45:02.250Z,101.55
2023-04-05T03:00:01.621Z,101.51
2023-04-05T03:15:02.176Z,102.48
2023-04-05T03:30:01.547Z,103.97
2023-04-05T03:45:02.098Z,102.52
2023-04-05T04:00:01.288Z,102.23
2023-04-05T04:15:02.114Z,102.76
2023-04-05T04:30:01.964Z,103.37
2023-04-05T04:45:02.099Z,105.47
2023-04-05T05:00:01.677Z,105.39
2023-04-05T05:15:02.150Z,104.95
2023-04-05T05:30:01.641Z,105.15
2023-04-05T05:45:02.178Z,103.45
2023-04-05T06:00:01.323Z,103
2023-04-05T06:15:02.306Z,100.94
2023-04-05T06:30:01.564Z,97.38
2023-04-05T06:45:02.317Z,89.28
2023-04-05T07:00:01.376Z,85.36
2023-04-05T07:15:02.445Z,81.11
2023-04-05T07:30:01.611Z,73.26
2023-04-05T07:45:02.330Z,68.12
2023-04-05T08:00:02.111Z,64.55
2023-04-05T08:15:02.327Z,61.88
2023-04-05T08:30:01.551Z,61.24
2023-04-05T08:45:02.367Z,59.5
2023-04-05T09:00:02.280Z,58.4
2023-04-05T09:15:02.009Z,58.4
2023-04-05T09:30:02.522Z,58.4
2023-04-05T09:45:01.532Z,58.4
2023-04-05T10:00:01.798Z,58.4
2023-04-05T10:15:02.283Z,58.4
2023-04-05T10:30:01.653Z,58.4
2023-04-05T10:45:01.973Z,58.4
2023-04-05T11:00:01.644Z,58.4
2023-04-05T11:15:02.073Z,58.4
2023-04-05T11:30:02.380Z,58.4
2023-04-05T11:45:02.845Z,58.4
2023-04-05T12:00:02.164Z,31.77
2023-04-05T12:15:02.823Z,30.8
2023-04-05T12:30:02.639Z,31.29
2023-04-05T12:45:01.381Z,31.29
2023-04-05T13:00:02.034Z,31.29
2023-04-05T13:15:02.500Z,31.29
2023-04-05T13:30:01.691Z,42.98
2023-04-05T13:45:02.041Z,43.2
2023-04-05T14:00:02.303Z,53.47
2023-04-05T14:15:02.239Z,55.33
2023-04-05T14:30:01.616Z,55.33
2023-04-05T14:45:01.974Z,55.33
2023-04-05T15:00:02.122Z,58.89
2023-04-05T15:15:02.172Z,57.76
2023-04-05T15:30:02.145Z,60.55
2023-04-05T15:45:02.165Z,57.23
2023-04-05T16:00:02.733Z,57.23
2023-04-05T16:15:01.437Z,57.23
2023-04-05T16:30:01.806Z,57.23
2023-04-05T16:45:02.221Z,57.23
2023-04-05T17:00:02.697Z,57.23
2023-04-05T17:15:01.788Z,57.23
2023-04-05T17:30:02.171Z,57.23
2023-04-05T17:45:02.177Z,57.23
2023-04-05T18:00:02.739Z,57.23
2023-04-05T18:15:02.092Z,57.23
2023-04-05T18:30:01.630Z,57.23
2023-04-05T18:45:02.114Z,57.23
2023-04-05T19:00:02.583Z,57.23
2023-04-05T19:15:01.424Z,57.23
2023-04-05T19:30:01.840Z,57.23
2023-04-05T19:45:02.151Z,57.23
2023-04-05T20:00:02.504Z,57.23
2023-04-05T20:15:02.560Z,83.5
2023-04-05T20:30:01.557Z,85.36
2023-04-05T20:45:02.536Z,86.57
2023-04-05T21:00:02.116Z,86.29
2023-04-05T21:15:01.541Z,85.36
2023-04-05T21:30:01.936Z,88.88
2023-04-05T21:45:02.559Z,90.7
2023-04-05T22:00:01.726Z,92.4
2023-04-05T22:15:02.575Z,94.79
2023-04-05T22:30:01.676Z,93.82
2023-04-05T22:45:02.693Z,92.8
2023-04-05T23:00:02.198Z,94.58
2023-04-05T23:15:01.496Z,95.23
2023-04-05T23:30:01.903Z,96.53
2023-04-05T23:45:02.764Z,99.52
